createdAt,value
2018-01-07T00:00:49.042Z,1.10
2018-01-07T00:03:15.993Z,3.10
2018-01-07T00:05:42.840Z,4.97
2018-01-07T00:08:09.684Z,6.18
2018-01-07T00:10:36.582Z,3.22
2018-01-07T00:13:03.455Z,4.43
2018-01-07T00:15:30.339Z,6.90
2018-01-07T00:17:57.242Z,2.03
2018-01-07T00:20:24.101Z,1.77
2018-01-07T00:22:51.212Z,4.07
2018-01-07T00:25:18.356Z,2.30
2018-01-07T00:27:45.192Z,4.70
2018-01-07T00:30:12.068Z,2.40
2018-01-07T00:32:38.962Z,3.30
2018-01-07T00:35:05.837Z,2.70
2018-01-07T00:37:32.766Z,2.60
2018-01-07T00:39:59.666Z,2.03
2018-01-07T00:42:26.541Z,2.60
2018-01-07T00:44:53.385Z,6.72
2018-01-07T00:47:20.277Z,3.65
2018-01-07T00:49:47.409Z,4.80
2018-01-07T00:52:14.302Z,2.30
2018-01-07T00:54:41.501Z,3.53
2018-01-07T00:57:08.344Z,3.67
2018-01-07T00:59:35.502Z,1.92
2018-01-07T01:02:02.376Z,3.12
2018-01-07T01:04:29.236Z,3.00
2018-01-07T01:06:56.138Z,3.15
2018-01-07T01:09:23.013Z,3.50
2018-01-07T01:11:50.098Z,2.60
2018-01-07T01:14:16.972Z,2.10
2018-01-07T01:16:43.936Z,2.15
2018-01-07T01:19:10.808Z,2.30
2018-01-07T01:21:38.320Z,2.00
2018-01-07T01:24:05.273Z,2.45
2018-01-07T01:26:32.203Z,2.15
2018-01-07T01:28:59.108Z,3.55
2018-01-07T01:31:25.979Z,2.65
2018-01-07T01:33:53.249Z,6.60
2018-01-07T01:36:20.188Z,2.03
2018-01-07T01:38:47.089Z,3.20
2018-01-07T01:41:13.983Z,7.03
2018-01-07T01:43:40.833Z,3.10
2018-01-07T01:46:08.082Z,2.45
2018-01-07T01:48:34.941Z,2.20
2018-01-07T01:51:01.796Z,1.80
2018-01-07T01:53:28.912Z,2.00
2018-01-07T01:55:55.769Z,8.15
2018-01-07T01:58:22.686Z,2.20
2018-01-07T02:00:49.857Z,1.70
2018-01-07T02:03:16.729Z,3.65
2018-01-07T02:05:43.588Z,3.05
2018-01-07T02:08:10.807Z,1.80
2018-01-07T02:10:38.515Z,6.10
2018-01-07T02:13:05.410Z,3.30
2018-01-07T02:15:32.557Z,3.42
2018-01-07T02:17:59.705Z,5.90
2018-01-07T02:20:26.553Z,1.30
2018-01-07T02:22:53.428Z,1.87
2018-01-07T02:25:20.282Z,1.48
2018-01-07T02:27:47.174Z,1.50
2018-01-07T02:30:14.083Z,1.80
2018-01-07T02:32:40.944Z,1.80
2018-01-07T02:35:08.117Z,2.00
2018-01-07T02:37:35.005Z,1.80
2018-01-07T02:40:01.856Z,3.20
2018-01-07T02:42:28.749Z,2.55
2018-01-07T02:44:55.646Z,2.37
2018-01-07T02:47:22.553Z,1.90
2018-01-07T02:49:49.430Z,3.17
2018-01-07T02:52:16.305Z,3.90
2018-01-07T02:54:43.478Z,2.83
2018-01-07T02:57:10.324Z,1.00
2018-01-07T02:59:37.233Z,1.10
2018-01-07T03:02:04.077Z,4.20
2018-01-07T03:04:30.965Z,1.90
2018-01-07T03:06:57.865Z,1.87
2018-01-07T03:09:25.050Z,2.50
2018-01-07T03:11:51.926Z,1.83
2018-01-07T03:14:18.838Z,2.12
2018-01-07T03:16:45.941Z,1.70
2018-01-07T03:19:12.842Z,1.90
2018-01-07T03:21:40.082Z,1.70
2018-01-07T03:24:07.232Z,1.40
2018-01-07T03:26:34.106Z,1.45
2018-01-07T03:29:01.223Z,7.95
2018-01-07T03:31:28.130Z,2.22
2018-01-07T03:33:55.426Z,1.75
2018-01-07T03:36:22.326Z,2.30
2018-01-07T03:38:49.518Z,1.63
2018-01-07T03:41:16.380Z,1.98
2018-01-07T03:43:43.486Z,1.65
2018-01-07T03:46:10.661Z,1.70
2018-01-07T03:48:37.504Z,1.87
2018-01-07T03:51:04.426Z,2.10
2018-01-07T03:53:31.284Z,4.03
2018-01-07T03:55:58.410Z,1.92
2018-01-07T03:58:26.073Z,1.20
2018-01-07T04:00:53.361Z,3.30
2018-01-07T04:03:20.253Z,1.67
2018-01-07T04:05:47.393Z,2.40
2018-01-07T04:08:14.387Z,2.10
2018-01-07T04:10:41.394Z,1.83
2018-01-07T04:13:08.320Z,1.40
2018-01-07T04:15:35.236Z,2.17
2018-01-07T04:18:02.350Z,3.62
2018-01-07T04:20:29.299Z,2.10
2018-01-07T04:22:56.194Z,1.58
2018-01-07T04:25:23.326Z,4.80
2018-01-07T04:27:50.789Z,1.42
2018-01-07T04:30:17.772Z,3.30
2018-01-07T04:32:44.650Z,2.05
2018-01-07T04:35:11.521Z,2.80
2018-01-07T04:37:38.380Z,3.10
2018-01-07T04:40:05.274Z,2.67
2018-01-07T04:42:32.172Z,2.30
2018-01-07T04:44:59.046Z,4.80
2018-01-07T04:47:25.905Z,1.95
2018-01-07T04:49:52.869Z,3.20
2018-01-07T04:52:19.720Z,2.10
2018-01-07T04:54:46.566Z,3.20
2018-01-07T04:57:13.435Z,2.00
2018-01-07T04:59:40.664Z,2.60
2018-01-07T05:02:07.542Z,2.33
2018-01-07T05:04:34.404Z,2.20
2018-01-07T05:07:01.244Z,3.00
2018-01-07T05:09:28.134Z,1.80
2018-01-07T05:11:54.992Z,1.47
2018-01-07T05:14:22.141Z,2.70
2018-01-07T05:16:49.014Z,2.75
2018-01-07T05:19:15.878Z,5.20
2018-01-07T05:21:42.714Z,3.50
2018-01-07T05:24:09.594Z,3.00
2018-01-07T05:26:36.468Z,3.20
2018-01-07T05:29:03.354Z,3.00
2018-01-07T05:31:30.205Z,3.50
2018-01-07T05:33:57.077Z,3.47
2018-01-07T05:36:23.950Z,4.85
2018-01-07T05:38:50.854Z,3.03
2018-01-07T05:41:18.028Z,2.35
2018-01-07T05:43:45.172Z,3.80
2018-01-07T05:46:12.042Z,4.15
2018-01-07T05:48:38.958Z,3.00
2018-01-07T05:51:05.805Z,2.92
2018-01-07T05:53:32.683Z,3.60
2018-01-07T05:55:59.544Z,2.50
2018-01-07T05:58:26.422Z,2.70
2018-01-07T06:00:53.602Z,4.97
2018-01-07T06:03:20.736Z,2.40
2018-01-07T06:05:47.626Z,5.28
2018-01-07T06:08:14.838Z,3.50
2018-01-07T06:10:41.985Z,2.50
2018-01-07T06:13:08.894Z,3.42
2018-01-07T06:15:35.778Z,3.92
2018-01-07T06:18:02.670Z,2.40
2018-01-07T06:20:29.874Z,2.65
2018-01-07T06:22:56.744Z,4.00
2018-01-07T06:25:23.597Z,2.80
2018-01-07T06:27:50.704Z,3.17
2018-01-07T06:30:17.861Z,3.87
2018-01-07T06:32:44.733Z,3.30
2018-01-07T06:35:11.590Z,2.22
2018-01-07T06:37:53.920Z,2.55
2018-01-07T06:40:20.798Z,3.20
2018-01-07T06:42:47.656Z,3.67
2018-01-07T06:45:14.573Z,3.35
2018-01-07T06:47:41.462Z,2.95
2018-01-07T06:50:08.362Z,2.55
2018-01-07T06:52:35.211Z,2.80
2018-01-07T06:55:02.582Z,2.83
2018-01-07T06:57:29.826Z,5.72
2018-01-07T06:59:56.705Z,2.37
2018-01-07T07:02:23.610Z,3.12
2018-01-07T07:04:50.766Z,4.57
2018-01-07T07:07:17.641Z,2.30
2018-01-07T07:09:44.754Z,2.15
2018-01-07T07:12:11.653Z,3.60
2018-01-07T07:14:38.571Z,4.40
2018-01-07T07:17:05.430Z,2.70
2018-01-07T07:19:32.330Z,3.03
2018-01-07T07:21:59.485Z,2.70
2018-01-07T07:24:26.369Z,1.67
2018-01-07T07:26:53.277Z,2.90
2018-01-07T07:29:20.135Z,1.70
2018-01-07T07:31:47.016Z,2.67
2018-01-07T07:34:14.209Z,3.20
2018-01-07T07:36:41.041Z,2.62
2018-01-07T07:39:08.209Z,2.37
2018-01-07T07:41:35.053Z,2.40
2018-01-07T07:44:01.912Z,2.12
2018-01-07T07:46:28.805Z,3.45
2018-01-07T07:48:55.652Z,2.20
2018-01-07T07:51:22.833Z,2.53
2018-01-07T07:53:50.069Z,1.98
2018-01-07T07:56:16.961Z,2.58
2018-01-07T07:58:44.182Z,3.30
2018-01-07T08:01:11.395Z,2.47
2018-01-07T08:03:38.318Z,4.22
2018-01-07T08:06:05.226Z,2.05
2018-01-07T08:08:32.368Z,2.50
2018-01-07T08:10:59.224Z,2.30
2018-01-07T08:13:26.118Z,2.28
2018-01-07T08:15:53.022Z,5.75
2018-01-07T08:18:20.270Z,3.78
2018-01-07T08:20:47.161Z,2.30
2018-01-07T08:23:14.021Z,1.90
2018-01-07T08:25:40.898Z,2.40
2018-01-07T08:28:08.132Z,1.40
2018-01-07T08:30:34.991Z,1.48
2018-01-07T08:33:01.886Z,1.30
2018-01-07T08:35:28.761Z,3.37
2018-01-07T08:37:55.658Z,1.50
2018-01-07T08:40:24.924Z,1.27
2018-01-07T08:42:51.785Z,1.90
2018-01-07T08:45:18.636Z,11.45
2018-01-07T08:47:45.505Z,4.47
2018-01-07T08:50:12.490Z,6.50
2018-01-07T08:52:39.386Z,5.60
2018-01-07T08:55:06.245Z,17.40
2018-01-07T08:57:33.139Z,12.17
2018-01-07T09:00:00.034Z,14.87
2018-01-07T09:02:26.913Z,13.30
2018-01-07T09:04:54.174Z,4.60
2018-01-07T09:07:21.058Z,6.22
2018-01-07T09:09:47.950Z,3.30
2018-01-07T09:12:15.104Z,4.00
2018-01-07T09:14:41.990Z,1.80
2018-01-07T09:17:08.868Z,1.60
2018-01-07T09:19:36.115Z,2.50
2018-01-07T09:22:02.981Z,1.58
2018-01-07T09:24:29.870Z,1.40
2018-01-07T09:26:56.744Z,1.70
2018-01-07T09:29:23.934Z,2.10
2018-01-07T09:31:50.818Z,2.70
2018-01-07T09:34:18.027Z,1.40
2018-01-07T09:36:45.117Z,2.60
2018-01-07T09:39:11.952Z,1.83
2018-01-07T09:41:39.070Z,2.95
2018-01-07T09:44:05.921Z,1.50
2018-01-07T09:46:32.790Z,1.50
2018-01-07T09:48:59.677Z,2.00
2018-01-07T09:51:26.537Z,1.12
2018-01-07T09:53:53.438Z,1.37
2018-01-07T09:56:20.338Z,1.30
2018-01-07T09:58:47.498Z,1.30
2018-01-07T10:01:14.413Z,1.20
2018-01-07T10:03:41.682Z,2.22
2018-01-07T10:06:08.549Z,4.00
2018-01-07T10:08:35.781Z,2.55
2018-01-07T10:11:02.670Z,2.12
2018-01-07T10:13:29.874Z,3.33
2018-01-07T10:15:56.794Z,2.20
2018-01-07T10:18:23.681Z,2.90
2018-01-07T10:20:50.812Z,1.40
2018-01-07T10:23:17.661Z,1.20
2018-01-07T10:25:44.774Z,2.58
2018-01-07T10:28:11.955Z,1.90
2018-01-07T10:30:38.860Z,1.30
2018-01-07T10:33:05.737Z,1.80
2018-01-07T10:35:32.881Z,1.27
2018-01-07T10:37:59.945Z,2.00
2018-01-07T10:40:26.818Z,1.60
2018-01-07T10:42:53.722Z,4.20
2018-01-07T10:45:20.796Z,2.33
2018-01-07T10:47:47.689Z,1.15
2018-01-07T10:50:14.873Z,2.20
2018-01-07T10:52:42.030Z,1.67
2018-01-07T10:55:08.942Z,3.72
2018-01-07T10:57:35.872Z,3.28
2018-01-07T11:00:02.794Z,1.80
2018-01-07T11:02:29.793Z,4.00
2018-01-07T11:04:56.675Z,1.90
2018-01-07T11:07:23.548Z,1.73
2018-01-07T11:09:50.745Z,2.05
2018-01-07T11:12:17.613Z,2.55
2018-01-07T11:14:44.537Z,2.65
2018-01-07T11:17:11.450Z,3.58
2018-01-07T11:19:38.737Z,3.80
2018-01-07T11:22:05.829Z,2.50
2018-01-07T11:24:33.038Z,3.20
2018-01-07T11:26:59.972Z,3.40
2018-01-07T11:29:27.199Z,7.40
2018-01-07T11:31:54.390Z,6.50
2018-01-07T11:34:21.306Z,5.35
2018-01-07T11:36:48.169Z,6.18
2018-01-07T11:39:15.057Z,5.60
2018-01-07T11:41:41.908Z,7.15
2018-01-07T11:44:08.830Z,7.53
2018-01-07T11:46:35.705Z,7.43
2018-01-07T11:49:02.614Z,6.62
2018-01-07T11:51:29.741Z,8.18
2018-01-07T11:53:56.626Z,8.68
2018-01-07T11:56:23.530Z,7.30
2018-01-07T11:58:50.384Z,7.87
2018-01-07T12:01:17.524Z,12.20
2018-01-07T12:03:44.381Z,7.03
2018-01-07T12:06:11.517Z,14.27
2018-01-07T12:08:38.426Z,7.30
2018-01-07T12:11:05.614Z,7.50
2018-01-07T12:13:32.762Z,7.43
2018-01-07T12:15:59.621Z,7.68
2018-01-07T12:18:26.729Z,7.82
2018-01-07T12:20:53.604Z,8.73
2018-01-07T12:23:20.862Z,7.50
2018-01-07T12:25:48.522Z,9.80
2018-01-07T12:28:15.440Z,8.63
2018-01-07T12:30:42.292Z,10.15
2018-01-07T12:33:09.457Z,7.15
2018-01-07T12:35:36.604Z,7.30
2018-01-07T12:38:03.474Z,6.70
2018-01-07T12:40:31.146Z,7.10
2018-01-07T12:42:58.196Z,11.48
2018-01-07T12:45:25.732Z,6.93
2018-01-07T12:47:52.671Z,6.70
2018-01-07T12:50:19.546Z,6.87
2018-01-07T12:52:46.431Z,8.47
2018-01-07T12:55:13.298Z,6.65
2018-01-07T12:57:40.168Z,7.53
2018-01-07T13:00:07.026Z,6.78
2018-01-07T13:02:36.574Z,6.18
2018-01-07T13:05:07.793Z,5.60
2018-01-07T13:07:39.890Z,5.60
2018-01-07T13:10:09.954Z,6.62
2018-01-07T13:12:41.543Z,5.10
2018-01-07T13:15:11.320Z,3.40
2018-01-07T13:17:41.920Z,3.80
2018-01-07T13:20:13.508Z,3.87
2018-01-07T13:22:45.124Z,4.47
2018-01-07T13:25:18.954Z,3.25
2018-01-07T13:27:50.606Z,3.25
2018-01-07T13:30:24.990Z,2.53
2018-01-07T13:32:57.631Z,2.20
2018-01-07T13:35:28.864Z,1.90
2018-01-07T13:38:02.722Z,2.15
2018-01-07T13:40:30.721Z,2.50
2018-01-07T13:43:00.984Z,1.52
2018-01-07T13:45:34.667Z,1.33
2018-01-07T13:48:05.352Z,1.90
2018-01-07T13:50:37.288Z,2.30
2018-01-07T13:53:07.431Z,2.45
2018-01-07T13:55:37.193Z,1.62
2018-01-07T13:58:09.321Z,1.45
2018-01-07T14:00:41.135Z,1.60
2018-01-07T14:03:09.006Z,1.73
2018-01-07T14:05:35.849Z,1.70
2018-01-07T14:08:02.714Z,2.00
2018-01-07T14:10:29.901Z,2.53
2018-01-07T14:12:56.785Z,2.97
2018-01-07T14:15:23.633Z,3.22
2018-01-07T14:17:50.522Z,1.80
2018-01-07T14:20:17.413Z,2.20
2018-01-07T14:22:44.290Z,1.70
2018-01-07T14:25:11.202Z,1.83
2018-01-07T14:27:38.066Z,1.10
2018-01-07T14:30:09.133Z,2.20
2018-01-07T14:32:43.350Z,3.00
2018-01-07T14:35:16.843Z,2.17
2018-01-07T14:37:48.905Z,2.62
2018-01-07T14:40:15.817Z,2.05
2018-01-07T14:42:46.141Z,1.85
2018-01-07T14:45:18.589Z,1.30
2018-01-07T14:47:51.694Z,1.77
2018-01-07T14:50:24.435Z,1.50
2018-01-07T14:52:54.575Z,2.70
2018-01-07T14:55:26.217Z,1.60
2018-01-07T14:57:59.628Z,2.45
2018-01-07T15:00:32.154Z,2.12
2018-01-07T15:03:05.431Z,2.08
2018-01-07T15:05:37.813Z,2.40
2018-01-07T15:08:08.567Z,3.15
2018-01-07T15:10:40.465Z,3.42
2018-01-07T15:13:12.096Z,4.63
2018-01-07T15:15:44.742Z,5.10
2018-01-07T15:18:19.371Z,5.10
2018-01-07T15:20:51.787Z,3.00
2018-01-07T15:23:24.638Z,13.43
2018-01-07T15:25:57.518Z,4.27
2018-01-07T15:28:29.181Z,3.50
2018-01-07T15:31:00.580Z,2.40
2018-01-07T15:33:33.466Z,6.55
2018-01-07T15:36:05.135Z,9.95
2018-01-07T15:38:33.593Z,7.68
2018-01-07T15:41:00.474Z,7.85
2018-01-07T15:43:27.379Z,4.93
2018-01-07T15:45:54.270Z,6.90
2018-01-07T15:48:21.162Z,5.70
2018-01-07T15:50:48.059Z,6.97
2018-01-07T15:53:14.954Z,6.07
2018-01-07T15:55:41.849Z,8.60
2018-01-07T15:58:08.705Z,5.80
2018-01-07T16:00:35.574Z,7.40
2018-01-07T16:03:02.445Z,3.23
2018-01-07T16:05:29.592Z,3.77
2018-01-07T16:07:56.490Z,2.90
2018-01-07T16:10:23.386Z,1.92
2018-01-07T16:12:50.260Z,6.37
2018-01-07T16:15:17.364Z,10.30
2018-01-07T16:17:44.217Z,5.50
2018-01-07T16:20:11.362Z,2.00
2018-01-07T16:22:38.225Z,2.50
2018-01-07T16:25:05.097Z,3.22
2018-01-07T16:27:31.957Z,1.83
2018-01-07T16:29:58.904Z,1.60
2018-01-07T16:32:25.793Z,1.50
2018-01-07T16:34:52.661Z,1.40
2018-01-07T16:37:19.784Z,1.97
2018-01-07T16:39:46.670Z,1.00
2018-01-07T16:42:13.873Z,2.67
2018-01-07T16:44:40.782Z,3.40
2018-01-07T16:47:07.641Z,1.80
2018-01-07T16:49:34.914Z,1.62
2018-01-07T16:52:02.065Z,1.57
2018-01-07T16:54:28.921Z,3.22
2018-01-07T16:56:55.797Z,1.70
2018-01-07T16:59:23.000Z,2.10
2018-01-07T17:01:49.948Z,2.00
2018-01-07T17:04:16.813Z,2.37
2018-01-07T17:06:44.071Z,9.73
2018-01-07T17:09:11.239Z,5.40
2018-01-07T17:11:38.096Z,3.15
2018-01-07T17:14:04.969Z,2.00
2018-01-07T17:16:31.858Z,3.80
2018-01-07T17:18:58.750Z,2.00
2018-01-07T17:21:25.617Z,2.30
2018-01-07T17:23:54.468Z,2.80
2018-01-07T17:26:22.833Z,3.80
2018-01-07T17:28:49.959Z,4.90
2018-01-07T17:31:17.088Z,5.00
2018-01-07T17:33:43.965Z,3.12
2018-01-07T17:36:10.858Z,3.45
2018-01-07T17:38:37.737Z,3.00
2018-01-07T17:41:04.622Z,3.75
2018-01-07T17:43:31.511Z,2.50
2018-01-07T17:45:58.384Z,2.35
2018-01-07T17:48:25.262Z,2.65
2018-01-07T17:50:52.129Z,2.92
2018-01-07T17:53:19.069Z,18.77
2018-01-07T17:55:46.238Z,5.65
2018-01-07T17:58:13.485Z,3.62
2018-01-07T18:00:40.344Z,3.10
2018-01-07T18:03:07.244Z,2.40
2018-01-07T18:05:34.131Z,3.60
2018-01-07T18:08:01.046Z,3.25
2018-01-07T18:10:27.974Z,3.53
2018-01-07T18:12:54.821Z,4.65
2018-01-07T18:15:21.717Z,3.47
2018-01-07T18:17:48.607Z,2.30
2018-01-07T18:20:15.790Z,4.60
2018-01-07T18:22:42.942Z,4.47
2018-01-07T18:25:09.878Z,3.92
2018-01-07T18:27:36.789Z,3.15
2018-01-07T18:30:03.742Z,5.32
2018-01-07T18:32:30.604Z,32.75
2018-01-07T18:34:57.775Z,26.52
2018-01-07T18:37:24.784Z,10.77
2018-01-07T18:39:51.690Z,5.43
2018-01-07T18:42:18.538Z,6.28
2018-01-07T18:44:45.653Z,7.45
2018-01-07T18:47:12.543Z,4.30
2018-01-07T18:49:39.400Z,5.10
2018-01-07T18:52:06.298Z,3.80
2018-01-07T18:54:33.202Z,3.15
2018-01-07T18:57:00.109Z,3.15
2018-01-07T18:59:27.000Z,4.07
2018-01-07T19:01:54.174Z,4.50
2018-01-07T19:04:21.493Z,4.55
2018-01-07T19:06:48.560Z,3.33
2018-01-07T19:09:15.409Z,3.42
2018-01-07T19:11:42.261Z,3.22
2018-01-07T19:14:09.134Z,5.10
2018-01-07T19:16:36.588Z,3.67
2018-01-07T19:19:03.458Z,5.60
2018-01-07T19:21:30.341Z,3.45
2018-01-07T19:23:57.218Z,3.53
2018-01-07T19:26:24.208Z,3.20
2018-01-07T19:28:51.086Z,3.30
2018-01-07T19:31:18.238Z,4.00
2018-01-07T19:33:45.110Z,7.80
2018-01-07T19:36:11.961Z,4.40
2018-01-07T19:38:39.178Z,5.15
2018-01-07T19:41:06.431Z,4.25
2018-01-07T19:43:33.361Z,3.83
2018-01-07T19:46:00.525Z,8.13
2018-01-07T19:48:27.672Z,5.03
2018-01-07T19:50:54.530Z,5.35
2018-01-07T19:53:21.670Z,4.07
2018-01-07T19:55:48.625Z,6.18
2018-01-07T19:58:15.807Z,5.22
2018-01-07T20:00:43.018Z,5.45
2018-01-07T20:03:10.270Z,5.60
2018-01-07T20:05:37.115Z,12.73
2018-01-07T20:08:03.990Z,6.70
2018-01-07T20:10:31.308Z,7.83
2018-01-07T20:12:58.200Z,6.97
2018-01-07T20:15:25.049Z,5.18
2018-01-07T20:17:52.298Z,6.32
2018-01-07T20:20:19.502Z,5.95
2018-01-07T20:22:46.469Z,5.20
2018-01-07T20:25:13.702Z,6.10
2018-01-07T20:27:40.549Z,5.72
2018-01-07T20:30:07.405Z,6.00
2018-01-07T20:32:34.689Z,8.75
2018-01-07T20:35:01.561Z,7.62
2018-01-07T20:37:28.408Z,7.00
2018-01-07T20:39:55.257Z,6.00
2018-01-07T20:42:22.389Z,6.40
2018-01-07T20:44:49.572Z,6.43
2018-01-07T20:47:16.420Z,6.62
2018-01-07T20:49:43.283Z,14.87
2018-01-07T20:52:10.408Z,11.63
2018-01-07T20:54:37.562Z,23.08
2018-01-07T20:57:04.458Z,18.20
2018-01-07T20:59:31.377Z,13.30
2018-01-07T21:01:58.291Z,5.90
2018-01-07T21:04:25.170Z,6.72
2018-01-07T21:06:52.102Z,5.12
2018-01-07T21:09:19.234Z,5.22
2018-01-07T21:11:46.381Z,5.60
2018-01-07T21:14:13.261Z,7.60
2018-01-07T21:16:40.306Z,4.90
2018-01-07T21:19:07.168Z,5.40
2018-01-07T21:21:34.265Z,5.20
2018-01-07T21:24:01.109Z,5.03
2018-01-07T21:26:28.262Z,6.40
2018-01-07T21:28:55.171Z,5.93
2018-01-07T21:31:22.328Z,7.35
2018-01-07T21:33:49.205Z,5.57
2018-01-07T21:36:16.074Z,6.72
2018-01-07T21:38:42.966Z,6.12
2018-01-07T21:41:09.854Z,5.22
2018-01-07T21:43:36.705Z,8.18
2018-01-07T21:46:03.622Z,5.70
2018-01-07T21:48:30.772Z,5.72
2018-01-07T21:50:57.638Z,5.90
2018-01-07T21:53:24.518Z,5.30
2018-01-07T21:55:51.380Z,6.30
2018-01-07T21:58:18.420Z,22.17
2018-01-07T22:00:51.158Z,11.55
2018-01-07T22:03:23.918Z,14.35
2018-01-07T22:05:53.572Z,34.40
2018-01-07T22:08:20.600Z,34.42
2018-01-07T22:10:47.503Z,18.87
2018-01-07T22:13:14.562Z,14.10
2018-01-07T22:15:41.922Z,9.95
2018-01-07T22:18:08.798Z,6.90
2018-01-07T22:20:35.914Z,6.67
2018-01-07T22:23:02.842Z,8.30
2018-01-07T22:25:29.721Z,5.95
2018-01-07T22:27:56.630Z,5.80
2018-01-07T22:30:23.793Z,6.20
2018-01-07T22:32:50.666Z,7.25
2018-01-07T22:35:17.788Z,5.87
2018-01-07T22:37:44.645Z,6.10
2018-01-07T22:40:11.786Z,5.40
2018-01-07T22:42:38.701Z,7.45
2018-01-07T22:45:05.573Z,6.40
2018-01-07T22:47:32.736Z,6.10
2018-01-07T22:49:59.604Z,7.90
2018-01-07T22:52:26.821Z,6.30
2018-01-07T22:54:53.689Z,6.60
2018-01-07T22:57:20.598Z,7.05
2018-01-07T22:59:47.497Z,6.28
2018-01-07T23:02:14.390Z,6.57
2018-01-07T23:04:41.261Z,6.22
2018-01-07T23:07:08.130Z,6.75
2018-01-07T23:09:35.232Z,6.53
2018-01-07T23:12:02.130Z,6.77
2018-01-07T23:14:29.296Z,6.12
2018-01-07T23:16:56.198Z,6.60
2018-01-07T23:19:23.429Z,8.15
2018-01-07T23:21:50.288Z,7.53
2018-01-07T23:24:17.170Z,10.13
2018-01-07T23:26:44.029Z,8.17
2018-01-07T23:29:10.878Z,8.33
2018-01-07T23:31:37.721Z,7.90
2018-01-07T23:34:04.564Z,9.20
2018-01-07T23:36:31.738Z,9.33
2018-01-07T23:38:58.885Z,8.55
2018-01-07T23:41:25.759Z,7.85
2018-01-07T23:43:52.638Z,10.30
2018-01-07T23:46:19.841Z,8.40
2018-01-07T23:48:46.688Z,9.13
2018-01-07T23:51:13.822Z,7.60
2018-01-07T23:53:40.720Z,8.05
2018-01-07T23:56:07.598Z,7.80
2018-01-07T23:58:34.472Z,6.22
